sensor_id;sensor_type;location;lat;lon;timestamp;P1;durP1;ratioP1;P2;durP2;ratioP2
66619;SDS011;53484;51.356;6.732;2022-08-03T00:00:16;10.60;;;1.80;;
66619;SDS011;53484;51.356;6.732;2022-08-03T00:02:42;6.05;;;1.90;;
66619;SDS011;53484;51.356;6.732;2022-08-03T00:05:09;6.50;;;2.22;;
66619;SDS011;53484;51.356;6.732;2022-08-03T00:07:35;7.93;;;1.95;;
66619;SDS011;53484;51.356;6.732;2022-08-03T00:10:02;6.20;;;1.80;;
66619;SDS011;53484;51.356;6.732;2022-08-03T00:12:30;4.90;;;1.60;;
66619;SDS011;53484;51.356;6.732;2022-08-03T00:14:56;4.88;;;1.80;;
66619;SDS011;53484;51.356;6.732;2022-08-03T00:17:23;5.00;;;2.00;;
66619;SDS011;53484;51.356;6.732;2022-08-03T00:19:49;4.00;;;1.80;;
66619;SDS011;53484;51.356;6.732;2022-08-03T00:22:15;4.55;;;2.00;;
66619;SDS011;53484;51.356;6.732;2022-08-03T00:24:41;5.50;;;1.77;;
66619;SDS011;53484;51.356;6.732;2022-08-03T00:27:08;5.80;;;2.22;;
66619;SDS011;53484;51.356;6.732;2022-08-03T00:29:35;4.88;;;2.00;;
66619;SDS011;53484;51.356;6.732;2022-08-03T00:32:02;5.22;;;1.92;;
66619;SDS011;53484;51.356;6.732;2022-08-03T00:34:28;5.95;;;1.88;;
66619;SDS011;53484;51.356;6.732;2022-08-03T00:36:55;4.87;;;1.90;;
66619;SDS011;53484;51.356;6.732;2022-08-03T00:39:21;8.60;;;2.17;;
66619;SDS011;53484;51.356;6.732;2022-08-03T00:41:47;7.53;;;2.30;;
66619;SDS011;53484;51.356;6.732;2022-08-03T00:44:14;6.68;;;2.20;;
66619;SDS011;53484;51.356;6.732;2022-08-03T00:46:41;4.95;;;1.92;;
66619;SDS011;53484;51.356;6.732;2022-08-03T00:49:08;5.00;;;2.20;;
66619;SDS011;53484;51.356;6.732;2022-08-03T00:51:34;6.75;;;2.15;;
66619;SDS011;53484;51.356;6.732;2022-08-03T00:54:00;5.95;;;2.38;;
66619;SDS011;53484;51.356;6.732;2022-08-03T00:56:27;6.97;;;2.35;;
66619;SDS011;53484;51.356;6.732;2022-08-03T00:58:53;6.68;;;2.33;;
66619;SDS011;53484;51.356;6.732;2022-08-03T01:01:21;4.53;;;2.10;;
66619;SDS011;53484;51.356;6.732;2022-08-03T01:03:49;5.90;;;2.20;;
66619;SDS011;53484;51.356;6.732;2022-08-03T01:06:16;6.13;;;2.30;;
66619;SDS011;53484;51.356;6.732;2022-08-03T01:08:44;5.25;;;2.20;;
66619;SDS011;53484;51.356;6.732;2022-08-03T01:11:14;7.00;;;2.55;;
66619;SDS011;53484;51.356;6.732;2022-08-03T01:13:43;7.10;;;2.20;;
66619;SDS011;53484;51.356;6.732;2022-08-03T01:16:14;6.63;;;2.53;;
66619;SDS011;53484;51.356;6.732;2022-08-03T01:18:44;5.05;;;2.47;;
66619;SDS011;53484;51.356;6.732;2022-08-03T01:21:13;6.88;;;2.35;;
66619;SDS011;53484;51.356;6.732;2022-08-03T01:26:36;7.17;;;2.10;;
66619;SDS011;53484;51.356;6.732;2022-08-03T01:29:08;7.47;;;2.70;;
66619;SDS011;53484;51.356;6.732;2022-08-03T01:31:40;6.72;;;2.47;;
66619;SDS011;53484;51.356;6.732;2022-08-03T01:34:09;8.45;;;2.33;;
66619;SDS011;53484;51.356;6.732;2022-08-03T01:36:38;5.80;;;2.38;;
66619;SDS011;53484;51.356;6.732;2022-08-03T01:39:05;6.13;;;2.60;;
66619;SDS011;53484;51.356;6.732;2022-08-03T01:41:34;8.43;;;2.60;;
66619;SDS011;53484;51.356;6.732;2022-08-03T01:44:02;6.18;;;2.70;;
66619;SDS011;53484;51.356;6.732;2022-08-03T01:46:29;5.50;;;2.20;;
66619;SDS011;53484;51.356;6.732;2022-08-03T01:48:57;6.38;;;2.63;;
66619;SDS011;53484;51.356;6.732;2022-08-03T01:51:24;10.20;;;2.77;;
66619;SDS011;53484;51.356;6.732;2022-08-03T01:53:51;6.95;;;2.45;;
66619;SDS011;53484;51.356;6.732;2022-08-03T01:56:19;5.97;;;2.30;;
66619;SDS011;53484;51.356;6.732;2022-08-03T01:58:47;5.20;;;2.10;;
66619;SDS011;53484;51.356;6.732;2022-08-03T02:01:14;9.52;;;2.42;;
66619;SDS011;53484;51.356;6.732;2022-08-03T02:03:41;6.37;;;2.03;;
66619;SDS011;53484;51.356;6.732;2022-08-03T02:06:09;6.35;;;2.50;;
66619;SDS011;53484;51.356;6.732;2022-08-03T02:08:37;5.80;;;2.17;;
66619;SDS011;53484;51.356;6.732;2022-08-03T02:11:04;6.32;;;2.90;;
66619;SDS011;53484;51.356;6.732;2022-08-03T02:13:30;6.47;;;2.13;;
66619;SDS011;53484;51.356;6.732;2022-08-03T02:15:58;6.07;;;2.40;;
66619;SDS011;53484;51.356;6.732;2022-08-03T02:18:24;8.95;;;2.80;;
66619;SDS011;53484;51.356;6.732;2022-08-03T02:20:51;6.70;;;2.45;;
66619;SDS011;53484;51.356;6.732;2022-08-03T02:23:18;7.05;;;2.60;;
66619;SDS011;53484;51.356;6.732;2022-08-03T02:25:45;7.93;;;2.70;;
66619;SDS011;53484;51.356;6.732;2022-08-03T02:28:15;5.80;;;2.43;;
66619;SDS011;53484;51.356;6.732;2022-08-03T02:30:43;6.97;;;2.80;;
66619;SDS011;53484;51.356;6.732;2022-08-03T02:33:11;8.25;;;2.40;;
66619;SDS011;53484;51.356;6.732;2022-08-03T02:35:39;6.28;;;2.90;;
66619;SDS011;53484;51.356;6.732;2022-08-03T02:38:06;6.30;;;2.65;;
66619;SDS011;53484;51.356;6.732;2022-08-03T02:40:34;6.30;;;2.60;;
66619;SDS011;53484;51.356;6.732;2022-08-03T02:43:01;5.72;;;2.70;;
66619;SDS011;53484;51.356;6.732;2022-08-03T02:45:28;7.72;;;2.60;;
66619;SDS011;53484;51.356;6.732;2022-08-03T02:47:57;6.20;;;2.60;;
66619;SDS011;53484;51.356;6.732;2022-08-03T02:50:25;6.80;;;2.83;;
66619;SDS011;53484;51.356;6.732;2022-08-03T02:52:52;7.90;;;3.30;;
66619;SDS011;53484;51.356;6.732;2022-08-03T02:55:20;5.85;;;2.55;;
66619;SDS011;53484;51.356;6.732;2022-08-03T02:57:48;7.72;;;2.70;;
66619;SDS011;53484;51.356;6.732;2022-08-03T03:00:15;5.38;;;2.70;;
66619;SDS011;53484;51.356;6.732;2022-08-03T03:02:41;8.75;;;2.83;;
66619;SDS011;53484;51.356;6.732;2022-08-03T03:05:08;7.80;;;3.20;;
66619;SDS011;53484;51.356;6.732;2022-08-03T03:07:35;6.80;;;2.80;;
66619;SDS011;53484;51.356;6.732;2022-08-03T03:10:02;4.80;;;2.70;;
66619;SDS011;53484;51.356;6.732;2022-08-03T03:12:29;6.30;;;3.03;;
66619;SDS011;53484;51.356;6.732;2022-08-03T03:14:57;8.40;;;2.95;;
66619;SDS011;53484;51.356;6.732;2022-08-03T03:17:24;7.37;;;3.00;;
66619;SDS011;53484;51.356;6.732;2022-08-03T03:19:50;7.43;;;3.15;;
66619;SDS011;53484;51.356;6.732;2022-08-03T03:22:17;6.28;;;3.17;;
66619;SDS011;53484;51.356;6.732;2022-08-03T03:24:43;11.38;;;3.72;;
66619;SDS011;53484;51.356;6.732;2022-08-03T03:27:11;8.95;;;3.30;;
66619;SDS011;53484;51.356;6.732;2022-08-03T03:29:38;7.73;;;3.30;;
66619;SDS011;53484;51.356;6.732;2022-08-03T03:32:06;7.65;;;3.08;;
66619;SDS011;53484;51.356;6.732;2022-08-03T03:34:33;9.55;;;3.78;;
66619;SDS011;53484;51.356;6.732;2022-08-03T03:37:00;6.35;;;3.35;;
66619;SDS011;53484;51.356;6.732;2022-08-03T03:39:26;9.25;;;3.70;;
66619;SDS011;53484;51.356;6.732;2022-08-03T03:41:52;8.17;;;3.73;;
66619;SDS011;53484;51.356;6.732;2022-08-03T03:44:19;6.10;;;3.33;;
66619;SDS011;53484;51.356;6.732;2022-08-03T03:46:45;7.93;;;3.88;;
66619;SDS011;53484;51.356;6.732;2022-08-03T03:49:13;9.18;;;3.83;;
66619;SDS011;53484;51.356;6.732;2022-08-03T03:51:39;11.45;;;3.63;;
66619;SDS011;53484;51.356;6.732;2022-08-03T03:54:06;7.93;;;3.80;;
66619;SDS011;53484;51.356;6.732;2022-08-03T03:56:32;6.95;;;3.30;;
66619;SDS011;53484;51.356;6.732;2022-08-03T03:58:59;6.38;;;3.45;;
66619;SDS011;53484;51.356;6.732;2022-08-03T04:01:25;6.60;;;3.45;;
66619;SDS011;53484;51.356;6.732;2022-08-03T04:03:51;7.07;;;3.40;;
66619;SDS011;53484;51.356;6.732;2022-08-03T04:06:19;9.53;;;4.13;;
66619;SDS011;53484;51.356;6.732;2022-08-03T04:09:03;9.07;;;3.97;;
66619;SDS011;53484;51.356;6.732;2022-08-03T04:11:44;9.32;;;4.30;;
66619;SDS011;53484;51.356;6.732;2022-08-03T04:14:13;9.10;;;3.47;;
66619;SDS011;53484;51.356;6.732;2022-08-03T04:16:42;10.38;;;3.92;;
66619;SDS011;53484;51.356;6.732;2022-08-03T04:19:10;10.03;;;4.03;;
66619;SDS011;53484;51.356;6.732;2022-08-03T04:21:39;9.52;;;3.85;;
66619;SDS011;53484;51.356;6.732;2022-08-03T04:24:07;8.48;;;3.72;;
66619;SDS011;53484;51.356;6.732;2022-08-03T04:26:35;12.80;;;3.55;;
66619;SDS011;53484;51.356;6.732;2022-08-03T04:29:02;7.50;;;3.85;;
66619;SDS011;53484;51.356;6.732;2022-08-03T04:31:29;9.03;;;3.70;;
66619;SDS011;53484;51.356;6.732;2022-08-03T04:33:56;7.70;;;4.07;;
66619;SDS011;53484;51.356;6.732;2022-08-03T04:36:23;9.00;;;3.67;;
66619;SDS011;53484;51.356;6.732;2022-08-03T04:38:54;10.02;;;4.00;;
66619;SDS011;53484;51.356;6.732;2022-08-03T04:41:21;10.85;;;4.40;;
66619;SDS011;53484;51.356;6.732;2022-08-03T04:43:49;9.57;;;4.40;;
66619;SDS011;53484;51.356;6.732;2022-08-03T04:46:16;8.93;;;4.03;;
66619;SDS011;53484;51.356;6.732;2022-08-03T04:48:44;8.23;;;3.88;;
66619;SDS011;53484;51.356;6.732;2022-08-03T04:51:10;8.95;;;3.58;;
66619;SDS011;53484;51.356;6.732;2022-08-03T04:53:37;10.02;;;3.85;;
66619;SDS011;53484;51.356;6.732;2022-08-03T04:56:05;8.80;;;4.47;;
66619;SDS011;53484;51.356;6.732;2022-08-03T04:58:31;8.00;;;4.20;;
66619;SDS011;53484;51.356;6.732;2022-08-03T05:00:58;11.23;;;4.00;;
66619;SDS011;53484;51.356;6.732;2022-08-03T05:03:24;8.55;;;3.92;;
66619;SDS011;53484;51.356;6.732;2022-08-03T05:05:50;11.27;;;4.57;;
66619;SDS011;53484;51.356;6.732;2022-08-03T05:08:17;7.57;;;4.43;;
66619;SDS011;53484;51.356;6.732;2022-08-03T05:10:43;9.15;;;4.05;;
66619;SDS011;53484;51.356;6.732;2022-08-03T05:13:11;8.63;;;4.40;;
66619;SDS011;53484;51.356;6.732;2022-08-03T05:15:38;10.90;;;5.20;;
66619;SDS011;53484;51.356;6.732;2022-08-03T05:18:05;8.70;;;4.35;;
66619;SDS011;53484;51.356;6.732;2022-08-03T05:20:31;9.37;;;4.30;;
66619;SDS011;53484;51.356;6.732;2022-08-03T05:22:57;12.45;;;5.10;;
66619;SDS011;53484;51.356;6.732;2022-08-03T05:25:25;9.23;;;4.72;;
66619;SDS011;53484;51.356;6.732;2022-08-03T05:27:51;8.98;;;4.22;;
66619;SDS011;53484;51.356;6.732;2022-08-03T05:30:19;9.52;;;4.78;;
66619;SDS011;53484;51.356;6.732;2022-08-03T05:32:45;8.37;;;4.33;;
66619;SDS011;53484;51.356;6.732;2022-08-03T05:35:12;8.85;;;4.68;;
66619;SDS011;53484;51.356;6.732;2022-08-03T05:37:38;10.60;;;4.75;;
66619;SDS011;53484;51.356;6.732;2022-08-03T05:40:05;10.25;;;4.63;;
66619;SDS011;53484;51.356;6.732;2022-08-03T05:42:31;10.38;;;4.45;;
66619;SDS011;53484;51.356;6.732;2022-08-03T05:44:58;8.50;;;4.30;;
66619;SDS011;53484;51.356;6.732;2022-08-03T05:47:25;11.05;;;4.30;;
66619;SDS011;53484;51.356;6.732;2022-08-03T05:49:52;11.02;;;4.75;;
66619;SDS011;53484;51.356;6.732;2022-08-03T05:52:18;8.98;;;5.22;;
66619;SDS011;53484;51.356;6.732;2022-08-03T05:54:44;8.07;;;4.47;;
66619;SDS011;53484;51.356;6.732;2022-08-03T05:57:10;8.53;;;4.37;;
66619;SDS011;53484;51.356;6.732;2022-08-03T05:59:37;11.50;;;4.95;;
66619;SDS011;53484;51.356;6.732;2022-08-03T06:02:03;10.00;;;4.40;;
66619;SDS011;53484;51.356;6.732;2022-08-03T06:04:31;7.53;;;4.50;;
66619;SDS011;53484;51.356;6.732;2022-08-03T06:06:57;9.75;;;4.75;;
66619;SDS011;53484;51.356;6.732;2022-08-03T06:09:24;16.90;;;5.20;;
66619;SDS011;53484;51.356;6.732;2022-08-03T06:11:50;11.82;;;4.70;;
66619;SDS011;53484;51.356;6.732;2022-08-03T06:14:16;9.90;;;4.70;;
66619;SDS011;53484;51.356;6.732;2022-08-03T06:16:42;9.38;;;4.53;;
66619;SDS011;53484;51.356;6.732;2022-08-03T06:19:09;8.88;;;3.97;;
66619;SDS011;53484;51.356;6.732;2022-08-03T06:21:36;10.00;;;4.33;;
66619;SDS011;53484;51.356;6.732;2022-08-03T06:24:03;11.30;;;4.50;;
66619;SDS011;53484;51.356;6.732;2022-08-03T06:26:29;8.93;;;4.45;;
66619;SDS011;53484;51.356;6.732;2022-08-03T06:28:57;8.88;;;4.30;;
66619;SDS011;53484;51.356;6.732;2022-08-03T06:31:24;10.55;;;4.80;;
66619;SDS011;53484;51.356;6.732;2022-08-03T06:33:52;9.43;;;3.87;;
66619;SDS011;53484;51.356;6.732;2022-08-03T06:36:18;10.52;;;4.18;;
66619;SDS011;53484;51.356;6.732;2022-08-03T06:38:45;9.40;;;4.25;;
66619;SDS011;53484;51.356;6.732;2022-08-03T06:41:12;11.90;;;3.97;;
66619;SDS011;53484;51.356;6.732;2022-08-03T06:43:38;8.00;;;4.00;;
66619;SDS011;53484;51.356;6.732;2022-08-03T06:46:04;11.50;;;4.13;;
66619;SDS011;53484;51.356;6.732;2022-08-03T06:48:31;12.63;;;5.00;;
66619;SDS011;53484;51.356;6.732;2022-08-03T06:50:57;10.93;;;4.20;;
66619;SDS011;53484;51.356;6.732;2022-08-03T06:53:23;12.48;;;3.97;;
66619;SDS011;53484;51.356;6.732;2022-08-03T06:55:51;7.65;;;4.05;;
66619;SDS011;53484;51.356;6.732;2022-08-03T06:58:17;10.07;;;3.80;;
66619;SDS011;53484;51.356;6.732;2022-08-03T07:00:44;10.13;;;4.18;;
66619;SDS011;53484;51.356;6.732;2022-08-03T07:03:10;17.10;;;4.28;;
66619;SDS011;53484;51.356;6.732;2022-08-03T07:05:36;13.57;;;3.90;;
66619;SDS011;53484;51.356;6.732;2022-08-03T07:08:03;10.75;;;3.80;;
66619;SDS011;53484;51.356;6.732;2022-08-03T07:10:29;10.43;;;4.13;;
66619;SDS011;53484;51.356;6.732;2022-08-03T07:12:57;10.43;;;3.83;;
66619;SDS011;53484;51.356;6.732;2022-08-03T07:15:23;11.80;;;3.92;;
66619;SDS011;53484;51.356;6.732;2022-08-03T07:17:50;11.90;;;4.13;;
66619;SDS011;53484;51.356;6.732;2022-08-03T07:20:16;13.48;;;3.85;;
66619;SDS011;53484;51.356;6.732;2022-08-03T07:22:42;9.03;;;3.60;;
66619;SDS011;53484;51.356;6.732;2022-08-03T07:25:09;12.77;;;4.00;;
66619;SDS011;53484;51.356;6.732;2022-08-03T07:27:35;9.68;;;3.58;;
66619;SDS011;53484;51.356;6.732;2022-08-03T07:30:05;9.82;;;3.83;;
66619;SDS011;53484;51.356;6.732;2022-08-03T07:32:31;9.70;;;3.80;;
66619;SDS011;53484;51.356;6.732;2022-08-03T07:34:58;8.87;;;3.60;;
66619;SDS011;53484;51.356;6.732;2022-08-03T07:37:24;10.63;;;4.55;;
66619;SDS011;53484;51.356;6.732;2022-08-03T07:39:50;17.38;;;4.72;;
66619;SDS011;53484;51.356;6.732;2022-08-03T07:42:17;9.38;;;4.20;;
66619;SDS011;53484;51.356;6.732;2022-08-03T07:44:43;11.20;;;4.30;;
66619;SDS011;53484;51.356;6.732;2022-08-03T07:47:10;10.97;;;3.20;;
66619;SDS011;53484;51.356;6.732;2022-08-03T07:49:40;8.15;;;3.53;;
66619;SDS011;53484;51.356;6.732;2022-08-03T07:52:06;8.23;;;3.00;;
66619;SDS011;53484;51.356;6.732;2022-08-03T07:54:50;6.45;;;3.40;;
66619;SDS011;53484;51.356;6.732;2022-08-03T07:57:16;12.00;;;3.38;;
66619;SDS011;53484;51.356;6.732;2022-08-03T07:59:44;10.97;;;2.87;;
66619;SDS011;53484;51.356;6.732;2022-08-03T08:02:11;7.35;;;2.33;;
66619;SDS011;53484;51.356;6.732;2022-08-03T08:04:38;11.35;;;1.88;;
66619;SDS011;53484;51.356;6.732;2022-08-03T08:07:04;6.93;;;2.17;;
66619;SDS011;53484;51.356;6.732;2022-08-03T08:09:30;7.85;;;2.10;;
66619;SDS011;53484;51.356;6.732;2022-08-03T08:11:57;7.30;;;2.47;;
66619;SDS011;53484;51.356;6.732;2022-08-03T08:14:23;7.28;;;1.85;;
66619;SDS011;53484;51.356;6.732;2022-08-03T08:16:49;6.68;;;1.83;;
66619;SDS011;53484;51.356;6.732;2022-08-03T08:19:17;7.32;;;1.70;;
66619;SDS011;53484;51.356;6.732;2022-08-03T08:21:43;8.40;;;2.15;;
66619;SDS011;53484;51.356;6.732;2022-08-03T08:24:09;5.80;;;1.80;;
66619;SDS011;53484;51.356;6.732;2022-08-03T08:26:36;8.93;;;2.42;;
66619;SDS011;53484;51.356;6.732;2022-08-03T08:29:02;7.60;;;2.10;;
66619;SDS011;53484;51.356;6.732;2022-08-03T08:31:28;7.15;;;1.80;;
66619;SDS011;53484;51.356;6.732;2022-08-03T08:33:55;5.20;;;1.85;;
66619;SDS011;53484;51.356;6.732;2022-08-03T08:36:22;7.63;;;1.60;;
66619;SDS011;53484;51.356;6.732;2022-08-03T08:38:49;8.15;;;1.70;;
66619;SDS011;53484;51.356;6.732;2022-08-03T08:41:15;8.23;;;2.83;;
66619;SDS011;53484;51.356;6.732;2022-08-03T08:43:42;9.55;;;1.95;;
66619;SDS011;53484;51.356;6.732;2022-08-03T08:46:08;6.30;;;2.00;;
66619;SDS011;53484;51.356;6.732;2022-08-03T08:48:37;8.53;;;2.13;;
66619;SDS011;53484;51.356;6.732;2022-08-03T08:51:05;8.27;;;1.90;;
66619;SDS011;53484;51.356;6.732;2022-08-03T08:53:34;10.82;;;2.20;;
66619;SDS011;53484;51.356;6.732;2022-08-03T08:56:01;5.78;;;2.08;;
66619;SDS011;53484;51.356;6.732;2022-08-03T08:58:28;10.73;;;2.03;;
66619;SDS011;53484;51.356;6.732;2022-08-03T09:00:55;9.10;;;2.13;;
66619;SDS011;53484;51.356;6.732;2022-08-03T09:03:21;5.75;;;1.98;;
66619;SDS011;53484;51.356;6.732;2022-08-03T09:05:48;8.00;;;2.17;;
66619;SDS011;53484;51.356;6.732;2022-08-03T09:08:14;8.80;;;2.20;;
66619;SDS011;53484;51.356;6.732;2022-08-03T09:10:42;6.13;;;2.15;;
66619;SDS011;53484;51.356;6.732;2022-08-03T09:13:08;10.63;;;1.60;;
66619;SDS011;53484;51.356;6.732;2022-08-03T09:15:34;9.18;;;1.80;;
66619;SDS011;53484;51.356;6.732;2022-08-03T09:18:02;8.60;;;2.00;;
66619;SDS011;53484;51.356;6.732;2022-08-03T09:20:29;8.38;;;1.90;;
66619;SDS011;53484;51.356;6.732;2022-08-03T09:22:57;6.50;;;1.63;;
66619;SDS011;53484;51.356;6.732;2022-08-03T09:25:30;9.63;;;2.33;;
66619;SDS011;53484;51.356;6.732;2022-08-03T09:28:04;5.15;;;1.60;;
66619;SDS011;53484;51.356;6.732;2022-08-03T09:30:31;5.13;;;1.67;;
66619;SDS011;53484;51.356;6.732;2022-08-03T09:32:58;6.22;;;1.80;;
66619;SDS011;53484;51.356;6.732;2022-08-03T09:35:25;7.55;;;1.77;;
66619;SDS011;53484;51.356;6.732;2022-08-03T09:38:07;9.77;;;1.80;;
66619;SDS011;53484;51.356;6.732;2022-08-03T09:40:33;5.38;;;1.50;;
66619;SDS011;53484;51.356;6.732;2022-08-03T09:43:00;6.40;;;1.40;;
66619;SDS011;53484;51.356;6.732;2022-08-03T09:45:27;9.75;;;1.40;;
66619;SDS011;53484;51.356;6.732;2022-08-03T09:47:54;5.32;;;1.50;;
66619;SDS011;53484;51.356;6.732;2022-08-03T09:50:21;6.83;;;1.30;;
66619;SDS011;53484;51.356;6.732;2022-08-03T09:52:48;3.83;;;1.52;;
66619;SDS011;53484;51.356;6.732;2022-08-03T09:55:16;6.63;;;1.70;;
66619;SDS011;53484;51.356;6.732;2022-08-03T09:57:44;7.10;;;1.63;;
66619;SDS011;53484;51.356;6.732;2022-08-03T10:00:11;5.10;;;1.60;;
66619;SDS011;53484;51.356;6.732;2022-08-03T10:02:39;5.27;;;1.47;;
66619;SDS011;53484;51.356;6.732;2022-08-03T10:05:07;7.88;;;1.40;;
66619;SDS011;53484;51.356;6.732;2022-08-03T10:07:40;7.57;;;1.60;;
66619;SDS011;53484;51.356;6.732;2022-08-03T10:10:07;8.70;;;1.40;;
66619;SDS011;53484;51.356;6.732;2022-08-03T10:12:34;6.20;;;1.60;;
66619;SDS011;53484;51.356;6.732;2022-08-03T10:15:01;6.33;;;1.40;;
66619;SDS011;53484;51.356;6.732;2022-08-03T10:17:28;9.00;;;1.17;;
66619;SDS011;53484;51.356;6.732;2022-08-03T10:19:55;7.45;;;1.45;;
66619;SDS011;53484;51.356;6.732;2022-08-03T10:22:23;10.95;;;1.25;;
66619;SDS011;53484;51.356;6.732;2022-08-03T10:24:52;4.82;;;1.10;;
66619;SDS011;53484;51.356;6.732;2022-08-03T10:27:19;5.23;;;1.03;;
66619;SDS011;53484;51.356;6.732;2022-08-03T10:29:46;4.68;;;1.35;;
66619;SDS011;53484;51.356;6.732;2022-08-03T10:32:17;6.47;;;1.10;;
66619;SDS011;53484;51.356;6.732;2022-08-03T10:34:44;5.20;;;1.15;;
66619;SDS011;53484;51.356;6.732;2022-08-03T10:37:12;6.57;;;1.13;;
66619;SDS011;53484;51.356;6.732;2022-08-03T10:39:41;8.00;;;1.07;;
66619;SDS011;53484;51.356;6.732;2022-08-03T10:42:17;3.65;;;0.80;;
66619;SDS011;53484;51.356;6.732;2022-08-03T10:44:44;8.25;;;1.25;;
66619;SDS011;53484;51.356;6.732;2022-08-03T10:47:12;7.75;;;1.17;;
66619;SDS011;53484;51.356;6.732;2022-08-03T10:49:39;5.40;;;1.30;;
66619;SDS011;53484;51.356;6.732;2022-08-03T10:52:06;4.77;;;1.27;;
66619;SDS011;53484;51.356;6.732;2022-08-03T10:54:40;5.00;;;1.00;;
66619;SDS011;53484;51.356;6.732;2022-08-03T11:00:06;5.68;;;1.00;;
66619;SDS011;53484;51.356;6.732;2022-08-03T11:05:24;5.10;;;0.87;;
66619;SDS011;53484;51.356;6.732;2022-08-03T11:07:52;4.10;;;0.95;;
66619;SDS011;53484;51.356;6.732;2022-08-03T11:10:40;3.67;;;1.20;;
66619;SDS011;53484;51.356;6.732;2022-08-03T11:13:06;4.35;;;1.13;;
66619;SDS011;53484;51.356;6.732;2022-08-03T11:15:34;5.18;;;1.10;;
66619;SDS011;53484;51.356;6.732;2022-08-03T11:18:07;4.03;;;1.20;;
66619;SDS011;53484;51.356;6.732;2022-08-03T11:20:43;4.00;;;1.10;;
66619;SDS011;53484;51.356;6.732;2022-08-03T11:23:10;6.32;;;1.30;;
66619;SDS011;53484;51.356;6.732;2022-08-03T11:28:27;5.45;;;0.93;;
66619;SDS011;53484;51.356;6.732;2022-08-03T11:30:54;6.83;;;1.00;;
66619;SDS011;53484;51.356;6.732;2022-08-03T11:33:28;6.97;;;1.23;;
66619;SDS011;53484;51.356;6.732;2022-08-03T11:35:58;5.03;;;1.13;;
66619;SDS011;53484;51.356;6.732;2022-08-03T11:38:24;4.72;;;1.13;;
66619;SDS011;53484;51.356;6.732;2022-08-03T11:40:51;5.72;;;1.48;;
66619;SDS011;53484;51.356;6.732;2022-08-03T11:46:08;5.15;;;1.70;;
66619;SDS011;53484;51.356;6.732;2022-08-03T11:48:38;5.22;;;1.60;;
66619;SDS011;53484;51.356;6.732;2022-08-03T11:51:07;4.05;;;1.23;;
66619;SDS011;53484;51.356;6.732;2022-08-03T11:53:43;7.57;;;1.70;;
66619;SDS011;53484;51.356;6.732;2022-08-03T11:56:11;3.50;;;1.13;;
66619;SDS011;53484;51.356;6.732;2022-08-03T11:58:44;6.53;;;1.60;;
66619;SDS011;53484;51.356;6.732;2022-08-03T12:01:12;5.57;;;1.60;;
66619;SDS011;53484;51.356;6.732;2022-08-03T12:03:40;3.45;;;1.60;;
66619;SDS011;53484;51.356;6.732;2022-08-03T12:06:08;7.90;;;1.73;;
66619;SDS011;53484;51.356;6.732;2022-08-03T12:08:34;5.70;;;1.50;;
66619;SDS011;53484;51.356;6.732;2022-08-03T12:11:01;7.78;;;1.40;;
66619;SDS011;53484;51.356;6.732;2022-08-03T12:13:39;6.47;;;1.50;;
66619;SDS011;53484;51.356;6.732;2022-08-03T12:16:06;4.32;;;1.40;;
66619;SDS011;53484;51.356;6.732;2022-08-03T12:18:34;4.00;;;1.33;;
66619;SDS011;53484;51.356;6.732;2022-08-03T12:21:05;7.33;;;1.60;;
66619;SDS011;53484;51.356;6.732;2022-08-03T12:23:32;4.72;;;1.45;;
66619;SDS011;53484;51.356;6.732;2022-08-03T12:26:00;6.95;;;1.88;;
66619;SDS011;53484;51.356;6.732;2022-08-03T12:28:26;4.15;;;1.63;;
66619;SDS011;53484;51.356;6.732;2022-08-03T12:30:53;6.80;;;1.83;;
66619;SDS011;53484;51.356;6.732;2022-08-03T12:33:22;4.07;;;1.37;;
66619;SDS011;53484;51.356;6.732;2022-08-03T12:35:51;6.90;;;1.80;;
66619;SDS011;53484;51.356;6.732;2022-08-03T12:38:27;6.57;;;1.70;;
66619;SDS011;53484;51.356;6.732;2022-08-03T12:40:54;5.43;;;1.95;;
66619;SDS011;53484;51.356;6.732;2022-08-03T12:43:20;8.05;;;1.90;;
66619;SDS011;53484;51.356;6.732;2022-08-03T12:45:47;7.93;;;1.77;;
66619;SDS011;53484;51.356;6.732;2022-08-03T12:48:13;7.22;;;1.90;;
66619;SDS011;53484;51.356;6.732;2022-08-03T12:50:39;6.05;;;2.00;;
66619;SDS011;53484;51.356;6.732;2022-08-03T12:53:08;5.65;;;1.70;;
66619;SDS011;53484;51.356;6.732;2022-08-03T12:55:35;4.65;;;1.83;;
66619;SDS011;53484;51.356;6.732;2022-08-03T12:58:01;5.27;;;1.83;;
66619;SDS011;53484;51.356;6.732;2022-08-03T13:00:28;6.55;;;1.58;;
66619;SDS011;53484;51.356;6.732;2022-08-03T13:02:58;4.63;;;2.00;;
66619;SDS011;53484;51.356;6.732;2022-08-03T13:05:25;8.38;;;1.60;;
66619;SDS011;53484;51.356;6.732;2022-08-03T13:07:51;4.78;;;1.60;;
66619;SDS011;53484;51.356;6.732;2022-08-03T13:10:27;5.77;;;1.50;;
66619;SDS011;53484;51.356;6.732;2022-08-03T13:12:53;5.90;;;1.55;;
66619;SDS011;53484;51.356;6.732;2022-08-03T13:15:22;8.75;;;2.05;;
66619;SDS011;53484;51.356;6.732;2022-08-03T13:17:50;6.10;;;1.35;;
66619;SDS011;53484;51.356;6.732;2022-08-03T13:20:16;5.35;;;1.83;;
66619;SDS011;53484;51.356;6.732;2022-08-03T13:22:45;7.73;;;1.53;;
66619;SDS011;53484;51.356;6.732;2022-08-03T13:25:11;9.30;;;1.90;;
66619;SDS011;53484;51.356;6.732;2022-08-03T13:27:39;5.40;;;1.80;;
66619;SDS011;53484;51.356;6.732;2022-08-03T13:30:06;4.68;;;1.40;;
66619;SDS011;53484;51.356;6.732;2022-08-03T13:32:32;6.05;;;1.45;;
66619;SDS011;53484;51.356;6.732;2022-08-03T13:34:59;6.70;;;1.67;;
66619;SDS011;53484;51.356;6.732;2022-08-03T13:37:26;4.22;;;1.50;;
66619;SDS011;53484;51.356;6.732;2022-08-03T13:39:52;6.28;;;1.48;;
66619;SDS011;53484;51.356;6.732;2022-08-03T13:42:19;5.05;;;1.38;;
66619;SDS011;53484;51.356;6.732;2022-08-03T13:44:46;5.97;;;1.30;;
66619;SDS011;53484;51.356;6.732;2022-08-03T13:47:12;7.47;;;1.57;;
66619;SDS011;53484;51.356;6.732;2022-08-03T13:49:39;5.05;;;1.00;;
66619;SDS011;53484;51.356;6.732;2022-08-03T13:52:06;6.53;;;1.50;;
66619;SDS011;53484;51.356;6.732;2022-08-03T13:54:32;4.25;;;1.17;;
66619;SDS011;53484;51.356;6.732;2022-08-03T13:56:58;5.93;;;1.05;;
66619;SDS011;53484;51.356;6.732;2022-08-03T13:59:25;3.97;;;1.33;;
66619;SDS011;53484;51.356;6.732;2022-08-03T14:01:53;8.25;;;1.45;;
66619;SDS011;53484;51.356;6.732;2022-08-03T14:04:20;5.32;;;1.48;;
66619;SDS011;53484;51.356;6.732;2022-08-03T14:06:46;6.55;;;1.50;;
66619;SDS011;53484;51.356;6.732;2022-08-03T14:09:13;4.00;;;1.10;;
66619;SDS011;53484;51.356;6.732;2022-08-03T14:11:39;4.00;;;1.40;;
66619;SDS011;53484;51.356;6.732;2022-08-03T14:14:06;4.07;;;1.20;;
66619;SDS011;53484;51.356;6.732;2022-08-03T14:16:32;5.50;;;1.45;;
66619;SDS011;53484;51.356;6.732;2022-08-03T14:19:00;4.43;;;1.35;;
66619;SDS011;53484;51.356;6.732;2022-08-03T14:21:26;6.80;;;1.00;;
66619;SDS011;53484;51.356;6.732;2022-08-03T14:23:52;5.37;;;1.43;;
66619;SDS011;53484;51.356;6.732;2022-08-03T14:26:19;13.02;;;1.50;;
66619;SDS011;53484;51.356;6.732;2022-08-03T14:28:45;5.03;;;1.55;;
66619;SDS011;53484;51.356;6.732;2022-08-03T14:31:11;6.60;;;0.93;;
66619;SDS011;53484;51.356;6.732;2022-08-03T14:33:37;5.95;;;1.33;;
66619;SDS011;53484;51.356;6.732;2022-08-03T14:36:05;5.00;;;1.07;;
66619;SDS011;53484;51.356;6.732;2022-08-03T14:38:32;3.40;;;0.93;;
66619;SDS011;53484;51.356;6.732;2022-08-03T14:40:58;7.13;;;0.90;;
66619;SDS011;53484;51.356;6.732;2022-08-03T14:43:24;3.67;;;0.80;;
66619;SDS011;53484;51.356;6.732;2022-08-03T14:45:51;4.53;;;1.00;;
66619;SDS011;53484;51.356;6.732;2022-08-03T14:48:18;4.03;;;0.77;;
66619;SDS011;53484;51.356;6.732;2022-08-03T14:50:45;4.22;;;1.10;;
66619;SDS011;53484;51.356;6.732;2022-08-03T14:53:12;3.42;;;1.00;;
66619;SDS011;53484;51.356;6.732;2022-08-03T14:55:38;4.70;;;1.13;;
66619;SDS011;53484;51.356;6.732;2022-08-03T14:58:05;7.47;;;1.52;;
66619;SDS011;53484;51.356;6.732;2022-08-03T15:00:31;8.50;;;1.40;;